sensor_id;sensor_type;location;lat;lon;timestamp;P1;durP1;ratioP1;P2;durP2;ratioP2
14799;SDS011;7491;57.750;11.970;2023-09-07T00:01:51;13.63;;;11.77;;
14799;SDS011;7491;57.750;11.970;2023-09-07T00:04:20;13.63;;;11.88;;
14799;SDS011;7491;57.750;11.970;2023-09-07T00:06:48;14.63;;;12.75;;
14799;SDS011;7491;57.750;11.970;2023-09-07T00:09:14;12.75;;;11.48;;
14799;SDS011;7491;57.750;11.970;2023-09-07T00:11:43;16.27;;;12.77;;
14799;SDS011;7491;57.750;11.970;2023-09-07T00:14:10;16.55;;;12.23;;
14799;SDS011;7491;57.750;11.970;2023-09-07T00:16:37;20.70;;;13.70;;
14799;SDS011;7491;57.750;11.970;2023-09-07T00:19:04;16.17;;;12.63;;
14799;SDS011;7491;57.750;11.970;2023-09-07T00:21:32;18.90;;;12.77;;
14799;SDS011;7491;57.750;11.970;2023-09-07T00:23:59;18.13;;;13.48;;
14799;SDS011;7491;57.750;11.970;2023-09-07T00:26:30;17.80;;;13.88;;
14799;SDS011;7491;57.750;11.970;2023-09-07T00:28:57;16.50;;;13.02;;
14799;SDS011;7491;57.750;11.970;2023-09-07T00:31:24;17.67;;;13.32;;
14799;SDS011;7491;57.750;11.970;2023-09-07T00:33:50;13.95;;;12.40;;
14799;SDS011;7491;57.750;11.970;2023-09-07T00:36:17;18.05;;;13.57;;
14799;SDS011;7491;57.750;11.970;2023-09-07T00:38:45;16.98;;;13.63;;
14799;SDS011;7491;57.750;11.970;2023-09-07T00:41:12;18.13;;;14.05;;
14799;SDS011;7491;57.750;11.970;2023-09-07T00:43:39;18.15;;;14.07;;
14799;SDS011;7491;57.750;11.970;2023-09-07T00:46:06;20.08;;;13.98;;
14799;SDS011;7491;57.750;11.970;2023-09-07T00:48:34;18.23;;;14.77;;
14799;SDS011;7491;57.750;11.970;2023-09-07T00:51:01;19.88;;;14.88;;
14799;SDS011;7491;57.750;11.970;2023-09-07T00:53:28;21.95;;;14.38;;
14799;SDS011;7491;57.750;11.970;2023-09-07T00:55:57;21.17;;;15.88;;
14799;SDS011;7491;57.750;11.970;2023-09-07T00:58:25;22.55;;;15.15;;
14799;SDS011;7491;57.750;11.970;2023-09-07T01:00:52;16.15;;;13.90;;
14799;SDS011;7491;57.750;11.970;2023-09-07T01:03:19;20.35;;;15.43;;
14799;SDS011;7491;57.750;11.970;2023-09-07T01:05:46;20.98;;;15.38;;
14799;SDS011;7491;57.750;11.970;2023-09-07T01:08:17;24.85;;;15.05;;
14799;SDS011;7491;57.750;11.970;2023-09-07T01:10:47;17.73;;;14.05;;
14799;SDS011;7491;57.750;11.970;2023-09-07T01:13:15;20.25;;;14.23;;
14799;SDS011;7491;57.750;11.970;2023-09-07T01:15:42;20.80;;;14.30;;
14799;SDS011;7491;57.750;11.970;2023-09-07T01:18:09;23.75;;;14.98;;
14799;SDS011;7491;57.750;11.970;2023-09-07T01:20:36;18.10;;;14.32;;
14799;SDS011;7491;57.750;11.970;2023-09-07T01:23:08;19.10;;;15.07;;
14799;SDS011;7491;57.750;11.970;2023-09-07T01:25:37;21.10;;;14.80;;
14799;SDS011;7491;57.750;11.970;2023-09-07T01:28:05;18.58;;;14.75;;
14799;SDS011;7491;57.750;11.970;2023-09-07T01:30:34;22.58;;;15.50;;
14799;SDS011;7491;57.750;11.970;2023-09-07T01:33:02;24.35;;;15.02;;
14799;SDS011;7491;57.750;11.970;2023-09-07T01:35:29;18.10;;;15.20;;
14799;SDS011;7491;57.750;11.970;2023-09-07T01:37:57;25.05;;;15.68;;
14799;SDS011;7491;57.750;11.970;2023-09-07T01:40:25;21.67;;;15.30;;
14799;SDS011;7491;57.750;11.970;2023-09-07T01:42:52;21.55;;;15.52;;
14799;SDS011;7491;57.750;11.970;2023-09-07T01:45:19;21.95;;;15.38;;
14799;SDS011;7491;57.750;11.970;2023-09-07T01:47:47;25.20;;;16.58;;
14799;SDS011;7491;57.750;11.970;2023-09-07T01:50:13;22.05;;;16.05;;
14799;SDS011;7491;57.750;11.970;2023-09-07T01:52:40;24.95;;;15.15;;
14799;SDS011;7491;57.750;11.970;2023-09-07T01:55:07;20.65;;;15.75;;
14799;SDS011;7491;57.750;11.970;2023-09-07T01:57:35;19.90;;;16.30;;
14799;SDS011;7491;57.750;11.970;2023-09-07T02:00:02;21.73;;;15.00;;
14799;SDS011;7491;57.750;11.970;2023-09-07T02:02:30;19.92;;;14.90;;
14799;SDS011;7491;57.750;11.970;2023-09-07T02:04:57;19.60;;;15.73;;
14799;SDS011;7491;57.750;11.970;2023-09-07T02:07:24;20.10;;;15.15;;
14799;SDS011;7491;57.750;11.970;2023-09-07T02:09:51;21.00;;;15.75;;
14799;SDS011;7491;57.750;11.970;2023-09-07T02:12:18;21.25;;;15.40;;
14799;SDS011;7491;57.750;11.970;2023-09-07T02:14:47;24.80;;;15.38;;
14799;SDS011;7491;57.750;11.970;2023-09-07T02:17:13;20.85;;;13.90;;
14799;SDS011;7491;57.750;11.970;2023-09-07T02:19:43;23.90;;;15.27;;
14799;SDS011;7491;57.750;11.970;2023-09-07T02:22:09;25.58;;;15.70;;
14799;SDS011;7491;57.750;11.970;2023-09-07T02:24:36;20.90;;;14.73;;
14799;SDS011;7491;57.750;11.970;2023-09-07T02:27:03;21.70;;;15.60;;
14799;SDS011;7491;57.750;11.970;2023-09-07T02:29:32;25.08;;;15.43;;
14799;SDS011;7491;57.750;11.970;2023-09-07T02:32:00;22.98;;;14.40;;
14799;SDS011;7491;57.750;11.970;2023-09-07T02:34:27;24.73;;;14.15;;
14799;SDS011;7491;57.750;11.970;2023-09-07T02:36:53;25.38;;;15.30;;
14799;SDS011;7491;57.750;11.970;2023-09-07T02:39:22;19.90;;;14.05;;
14799;SDS011;7491;57.750;11.970;2023-09-07T02:41:51;21.70;;;13.90;;
14799;SDS011;7491;57.750;11.970;2023-09-07T02:44:18;23.35;;;14.32;;
14799;SDS011;7491;57.750;11.970;2023-09-07T02:46:45;21.67;;;14.75;;
14799;SDS011;7491;57.750;11.970;2023-09-07T02:49:13;25.45;;;14.02;;
14799;SDS011;7491;57.750;11.970;2023-09-07T02:51:40;21.85;;;15.30;;
14799;SDS011;7491;57.750;11.970;2023-09-07T02:54:07;26.98;;;14.90;;
14799;SDS011;7491;57.750;11.970;2023-09-07T02:56:34;23.88;;;15.18;;
14799;SDS011;7491;57.750;11.970;2023-09-07T02:59:01;26.47;;;17.53;;
14799;SDS011;7491;57.750;11.970;2023-09-07T03:01:28;26.08;;;15.63;;
14799;SDS011;7491;57.750;11.970;2023-09-07T03:03:56;24.83;;;14.88;;
14799;SDS011;7491;57.750;11.970;2023-09-07T03:06:24;20.17;;;15.00;;
14799;SDS011;7491;57.750;11.970;2023-09-07T03:08:51;22.00;;;14.57;;
14799;SDS011;7491;57.750;11.970;2023-09-07T03:11:18;30.65;;;15.48;;
14799;SDS011;7491;57.750;11.970;2023-09-07T03:13:45;22.00;;;15.38;;
14799;SDS011;7491;57.750;11.970;2023-09-07T03:16:11;21.17;;;14.25;;
14799;SDS011;7491;57.750;11.970;2023-09-07T03:18:38;25.15;;;14.45;;
14799;SDS011;7491;57.750;11.970;2023-09-07T03:21:05;25.90;;;15.18;;
14799;SDS011;7491;57.750;11.970;2023-09-07T03:23:34;20.00;;;13.82;;
14799;SDS011;7491;57.750;11.970;2023-09-07T03:26:01;20.02;;;13.82;;
14799;SDS011;7491;57.750;11.970;2023-09-07T03:28:27;20.27;;;14.02;;
14799;SDS011;7491;57.750;11.970;2023-09-07T03:30:54;22.17;;;14.48;;
14799;SDS011;7491;57.750;11.970;2023-09-07T03:33:22;19.35;;;13.52;;
14799;SDS011;7491;57.750;11.970;2023-09-07T03:35:49;20.92;;;14.05;;
14799;SDS011;7491;57.750;11.970;2023-09-07T03:38:17;20.40;;;14.93;;
14799;SDS011;7491;57.750;11.970;2023-09-07T03:40:45;19.95;;;13.82;;
14799;SDS011;7491;57.750;11.970;2023-09-07T03:43:11;23.00;;;13.75;;
14799;SDS011;7491;57.750;11.970;2023-09-07T03:45:38;17.85;;;12.63;;
14799;SDS011;7491;57.750;11.970;2023-09-07T03:48:05;17.00;;;12.70;;
14799;SDS011;7491;57.750;11.970;2023-09-07T03:50:34;18.67;;;12.85;;
14799;SDS011;7491;57.750;11.970;2023-09-07T03:53:02;19.63;;;13.63;;
14799;SDS011;7491;57.750;11.970;2023-09-07T03:55:28;17.83;;;13.63;;
14799;SDS011;7491;57.750;11.970;2023-09-07T03:57:57;18.10;;;12.45;;
14799;SDS011;7491;57.750;11.970;2023-09-07T04:00:23;14.32;;;11.63;;
14799;SDS011;7491;57.750;11.970;2023-09-07T04:02:50;17.95;;;11.45;;
14799;SDS011;7491;57.750;11.970;2023-09-07T04:05:17;19.00;;;12.25;;
14799;SDS011;7491;57.750;11.970;2023-09-07T04:07:43;16.35;;;11.55;;
14799;SDS011;7491;57.750;11.970;2023-09-07T04:10:11;12.95;;;10.52;;
14799;SDS011;7491;57.750;11.970;2023-09-07T04:12:37;18.45;;;11.38;;
14799;SDS011;7491;57.750;11.970;2023-09-07T04:15:06;14.07;;;10.88;;
14799;SDS011;7491;57.750;11.970;2023-09-07T04:17:33;18.73;;;11.38;;
14799;SDS011;7491;57.750;11.970;2023-09-07T04:20:05;13.70;;;10.38;;
14799;SDS011;7491;57.750;11.970;2023-09-07T04:22:34;13.65;;;10.90;;
14799;SDS011;7491;57.750;11.970;2023-09-07T04:25:00;11.32;;;10.13;;
14799;SDS011;7491;57.750;11.970;2023-09-07T04:27:27;11.48;;;9.70;;
14799;SDS011;7491;57.750;11.970;2023-09-07T04:29:54;13.60;;;9.40;;
14799;SDS011;7491;57.750;11.970;2023-09-07T04:32:22;11.95;;;9.93;;
14799;SDS011;7491;57.750;11.970;2023-09-07T04:34:52;15.32;;;10.77;;
14799;SDS011;7491;57.750;11.970;2023-09-07T04:37:19;17.90;;;10.85;;
14799;SDS011;7491;57.750;11.970;2023-09-07T04:39:46;12.00;;;9.55;;
14799;SDS011;7491;57.750;11.970;2023-09-07T04:42:14;15.40;;;9.77;;
14799;SDS011;7491;57.750;11.970;2023-09-07T04:44:41;14.95;;;9.48;;
14799;SDS011;7491;57.750;11.970;2023-09-07T04:47:07;20.85;;;10.13;;
14799;SDS011;7491;57.750;11.970;2023-09-07T04:49:35;14.07;;;8.60;;
14799;SDS011;7491;57.750;11.970;2023-09-07T04:52:02;16.05;;;9.45;;
14799;SDS011;7491;57.750;11.970;2023-09-07T04:54:29;15.95;;;9.75;;
14799;SDS011;7491;57.750;11.970;2023-09-07T04:56:56;11.55;;;9.65;;
14799;SDS011;7491;57.750;11.970;2023-09-07T04:59:23;13.45;;;9.55;;
14799;SDS011;7491;57.750;11.970;2023-09-07T05:01:58;12.23;;;9.05;;
14799;SDS011;7491;57.750;11.970;2023-09-07T05:04:26;12.05;;;9.43;;
14799;SDS011;7491;57.750;11.970;2023-09-07T05:06:55;15.45;;;9.18;;
14799;SDS011;7491;57.750;11.970;2023-09-07T05:09:23;12.98;;;9.40;;
14799;SDS011;7491;57.750;11.970;2023-09-07T05:11:50;10.40;;;8.52;;
14799;SDS011;7491;57.750;11.970;2023-09-07T05:14:17;10.35;;;9.25;;
14799;SDS011;7491;57.750;11.970;2023-09-07T05:16:44;13.98;;;9.00;;
14799;SDS011;7491;57.750;11.970;2023-09-07T05:19:13;12.30;;;8.75;;
14799;SDS011;7491;57.750;11.970;2023-09-07T05:21:40;13.23;;;8.88;;
14799;SDS011;7491;57.750;11.970;2023-09-07T05:24:08;10.15;;;8.32;;
14799;SDS011;7491;57.750;11.970;2023-09-07T05:26:34;14.55;;;8.52;;
14799;SDS011;7491;57.750;11.970;2023-09-07T05:29:01;12.63;;;8.38;;
14799;SDS011;7491;57.750;11.970;2023-09-07T05:31:28;9.25;;;7.85;;
14799;SDS011;7491;57.750;11.970;2023-09-07T05:33:54;12.23;;;7.40;;
14799;SDS011;7491;57.750;11.970;2023-09-07T05:36:21;11.07;;;7.40;;
14799;SDS011;7491;57.750;11.970;2023-09-07T05:38:48;8.10;;;7.15;;
14799;SDS011;7491;57.750;11.970;2023-09-07T05:41:16;9.20;;;7.05;;
14799;SDS011;7491;57.750;11.970;2023-09-07T05:43:43;11.65;;;7.50;;
14799;SDS011;7491;57.750;11.970;2023-09-07T05:46:09;9.85;;;7.28;;
14799;SDS011;7491;57.750;11.970;2023-09-07T05:48:36;10.15;;;5.93;;
14799;SDS011;7491;57.750;11.970;2023-09-07T05:51:03;9.88;;;6.50;;
14799;SDS011;7491;57.750;11.970;2023-09-07T05:53:30;9.20;;;6.25;;
14799;SDS011;7491;57.750;11.970;2023-09-07T05:55:56;11.25;;;6.28;;
14799;SDS011;7491;57.750;11.970;2023-09-07T05:58:25;12.73;;;7.18;;
14799;SDS011;7491;57.750;11.970;2023-09-07T06:00:52;8.13;;;6.18;;
14799;SDS011;7491;57.750;11.970;2023-09-07T06:03:19;8.13;;;6.32;;
14799;SDS011;7491;57.750;11.970;2023-09-07T06:05:45;8.15;;;6.60;;
14799;SDS011;7491;57.750;11.970;2023-09-07T06:08:12;8.25;;;6.00;;
14799;SDS011;7491;57.750;11.970;2023-09-07T06:10:39;8.63;;;6.18;;
14799;SDS011;7491;57.750;11.970;2023-09-07T06:13:06;9.90;;;6.15;;
14799;SDS011;7491;57.750;11.970;2023-09-07T06:15:34;9.95;;;5.50;;
14799;SDS011;7491;57.750;11.970;2023-09-07T06:18:00;12.48;;;6.82;;
14799;SDS011;7491;57.750;11.970;2023-09-07T06:20:28;8.02;;;5.55;;
14799;SDS011;7491;57.750;11.970;2023-09-07T06:22:55;8.70;;;5.75;;
14799;SDS011;7491;57.750;11.970;2023-09-07T06:25:21;10.75;;;6.13;;
14799;SDS011;7491;57.750;11.970;2023-09-07T06:27:48;7.88;;;6.10;;
14799;SDS011;7491;57.750;11.970;2023-09-07T06:30:15;8.45;;;6.18;;
14799;SDS011;7491;57.750;11.970;2023-09-07T06:32:43;12.20;;;6.00;;
14799;SDS011;7491;57.750;11.970;2023-09-07T06:35:10;14.65;;;6.05;;
14799;SDS011;7491;57.750;11.970;2023-09-07T06:37:37;8.10;;;5.82;;
14799;SDS011;7491;57.750;11.970;2023-09-07T06:40:06;7.40;;;6.15;;
14799;SDS011;7491;57.750;11.970;2023-09-07T06:42:35;7.53;;;6.03;;
14799;SDS011;7491;57.750;11.970;2023-09-07T06:45:02;9.75;;;5.70;;
14799;SDS011;7491;57.750;11.970;2023-09-07T06:47:30;7.97;;;5.72;;
14799;SDS011;7491;57.750;11.970;2023-09-07T06:49:59;11.05;;;6.28;;
14799;SDS011;7491;57.750;11.970;2023-09-07T06:52:25;13.60;;;5.95;;
14799;SDS011;7491;57.750;11.970;2023-09-07T06:54:52;11.60;;;5.57;;
14799;SDS011;7491;57.750;11.970;2023-09-07T06:57:19;6.60;;;5.18;;
14799;SDS011;7491;57.750;11.970;2023-09-07T06:59:46;15.68;;;5.78;;
14799;SDS011;7491;57.750;11.970;2023-09-07T07:02:13;7.13;;;4.95;;
14799;SDS011;7491;57.750;11.970;2023-09-07T07:04:40;10.68;;;6.03;;
14799;SDS011;7491;57.750;11.970;2023-09-07T07:07:10;8.73;;;5.75;;
14799;SDS011;7491;57.750;11.970;2023-09-07T07:09:37;6.68;;;4.95;;
14799;SDS011;7491;57.750;11.970;2023-09-07T07:12:04;7.68;;;5.03;;
14799;SDS011;7491;57.750;11.970;2023-09-07T07:14:31;11.73;;;5.07;;
14799;SDS011;7491;57.750;11.970;2023-09-07T07:16:58;8.75;;;5.25;;
14799;SDS011;7491;57.750;11.970;2023-09-07T07:19:26;7.00;;;4.72;;
14799;SDS011;7491;57.750;11.970;2023-09-07T07:21:53;4.82;;;4.30;;
14799;SDS011;7491;57.750;11.970;2023-09-07T07:24:21;9.90;;;4.88;;
14799;SDS011;7491;57.750;11.970;2023-09-07T07:26:49;7.10;;;4.32;;
14799;SDS011;7491;57.750;11.970;2023-09-07T07:29:15;8.52;;;4.40;;
14799;SDS011;7491;57.750;11.970;2023-09-07T07:31:42;10.48;;;4.72;;
14799;SDS011;7491;57.750;11.970;2023-09-07T07:34:09;9.00;;;4.45;;
14799;SDS011;7491;57.750;11.970;2023-09-07T07:36:36;6.82;;;4.38;;
14799;SDS011;7491;57.750;11.970;2023-09-07T07:39:03;7.85;;;4.85;;
14799;SDS011;7491;57.750;11.970;2023-09-07T07:41:33;10.38;;;4.90;;
14799;SDS011;7491;57.750;11.970;2023-09-07T07:44:00;6.75;;;4.47;;
14799;SDS011;7491;57.750;11.970;2023-09-07T07:46:28;8.68;;;5.40;;
14799;SDS011;7491;57.750;11.970;2023-09-07T07:48:54;7.78;;;4.63;;
14799;SDS011;7491;57.750;11.970;2023-09-07T07:51:21;7.35;;;4.75;;
14799;SDS011;7491;57.750;11.970;2023-09-07T07:53:48;6.60;;;4.70;;
14799;SDS011;7491;57.750;11.970;2023-09-07T07:56:15;5.57;;;4.35;;
14799;SDS011;7491;57.750;11.970;2023-09-07T07:58:43;6.68;;;4.75;;
14799;SDS011;7491;57.750;11.970;2023-09-07T08:01:14;9.30;;;4.65;;
14799;SDS011;7491;57.750;11.970;2023-09-07T08:03:41;7.05;;;4.53;;
14799;SDS011;7491;57.750;11.970;2023-09-07T08:06:08;6.53;;;4.85;;
14799;SDS011;7491;57.750;11.970;2023-09-07T08:08:35;4.90;;;3.83;;
14799;SDS011;7491;57.750;11.970;2023-09-07T08:11:02;7.88;;;4.40;;
14799;SDS011;7491;57.750;11.970;2023-09-07T08:13:31;6.43;;;4.10;;
14799;SDS011;7491;57.750;11.970;2023-09-07T08:16:00;7.55;;;4.40;;
14799;SDS011;7491;57.750;11.970;2023-09-07T08:18:27;5.88;;;4.60;;
14799;SDS011;7491;57.750;11.970;2023-09-07T08:20:55;6.85;;;4.50;;
14799;SDS011;7491;57.750;11.970;2023-09-07T08:23:22;6.63;;;4.30;;
14799;SDS011;7491;57.750;11.970;2023-09-07T08:25:50;8.23;;;4.43;;
14799;SDS011;7491;57.750;11.970;2023-09-07T08:28:18;6.47;;;4.43;;
14799;SDS011;7491;57.750;11.970;2023-09-07T08:30:47;5.05;;;4.20;;
14799;SDS011;7491;57.750;11.970;2023-09-07T08:33:16;6.93;;;4.68;;
14799;SDS011;7491;57.750;11.970;2023-09-07T08:35:43;5.28;;;3.92;;
14799;SDS011;7491;57.750;11.970;2023-09-07T08:38:11;4.88;;;4.30;;
14799;SDS011;7491;57.750;11.970;2023-09-07T08:40:38;6.20;;;3.50;;
14799;SDS011;7491;57.750;11.970;2023-09-07T08:43:08;8.63;;;3.72;;
14799;SDS011;7491;57.750;11.970;2023-09-07T08:45:37;4.70;;;4.03;;
14799;SDS011;7491;57.750;11.970;2023-09-07T08:48:08;6.28;;;4.10;;
14799;SDS011;7491;57.750;11.970;2023-09-07T08:50:37;5.72;;;3.80;;
14799;SDS011;7491;57.750;11.970;2023-09-07T08:53:07;5.60;;;4.20;;
14799;SDS011;7491;57.750;11.970;2023-09-07T08:55:34;6.82;;;4.40;;
14799;SDS011;7491;57.750;11.970;2023-09-07T08:58:01;5.25;;;4.13;;
14799;SDS011;7491;57.750;11.970;2023-09-07T09:00:28;5.90;;;4.07;;
14799;SDS011;7491;57.750;11.970;2023-09-07T09:02:55;4.88;;;3.85;;
14799;SDS011;7491;57.750;11.970;2023-09-07T09:05:23;7.45;;;4.57;;
14799;SDS011;7491;57.750;11.970;2023-09-07T09:08:01;6.25;;;4.13;;
14799;SDS011;7491;57.750;11.970;2023-09-07T09:10:29;7.20;;;4.22;;
14799;SDS011;7491;57.750;11.970;2023-09-07T09:12:56;5.35;;;4.13;;
14799;SDS011;7491;57.750;11.970;2023-09-07T09:15:24;5.28;;;3.75;;
14799;SDS011;7491;57.750;11.970;2023-09-07T09:17:51;6.28;;;4.28;;
14799;SDS011;7491;57.750;11.970;2023-09-07T09:20:21;5.75;;;4.72;;
14799;SDS011;7491;57.750;11.970;2023-09-07T09:22:52;5.25;;;4.30;;
14799;SDS011;7491;57.750;11.970;2023-09-07T09:25:21;5.05;;;4.40;;
14799;SDS011;7491;57.750;11.970;2023-09-07T09:27:48;6.40;;;4.15;;
14799;SDS011;7491;57.750;11.970;2023-09-07T09:30:15;6.70;;;3.75;;
14799;SDS011;7491;57.750;11.970;2023-09-07T09:32:42;8.30;;;4.05;;
14799;SDS011;7491;57.750;11.970;2023-09-07T09:35:09;6.25;;;4.20;;
14799;SDS011;7491;57.750;11.970;2023-09-07T09:37:43;7.18;;;3.75;;
14799;SDS011;7491;57.750;11.970;2023-09-07T09:40:11;5.00;;;3.55;;
14799;SDS011;7491;57.750;11.970;2023-09-07T09:42:40;4.13;;;3.65;;
14799;SDS011;7491;57.750;11.970;2023-09-07T09:45:08;7.22;;;3.80;;
14799;SDS011;7491;57.750;11.970;2023-09-07T09:47:36;5.30;;;3.60;;
14799;SDS011;7491;57.750;11.970;2023-09-07T09:50:06;4.55;;;3.53;;
14799;SDS011;7491;57.750;11.970;2023-09-07T09:52:35;6.78;;;4.18;;
14799;SDS011;7491;57.750;11.970;2023-09-07T09:55:03;4.28;;;3.47;;
14799;SDS011;7491;57.750;11.970;2023-09-07T09:57:32;4.80;;;3.47;;
14799;SDS011;7491;57.750;11.970;2023-09-07T10:00:01;9.27;;;3.50;;
14799;SDS011;7491;57.750;11.970;2023-09-07T10:02:44;6.07;;;3.22;;
14799;SDS011;7491;57.750;11.970;2023-09-07T10:05:13;7.07;;;3.20;;
14799;SDS011;7491;57.750;11.970;2023-09-07T10:07:41;7.47;;;3.75;;
14799;SDS011;7491;57.750;11.970;2023-09-07T10:10:09;4.25;;;3.22;;
14799;SDS011;7491;57.750;11.970;2023-09-07T10:12:39;5.28;;;3.05;;
14799;SDS011;7491;57.750;11.970;2023-09-07T10:15:19;3.30;;;3.00;;
14799;SDS011;7491;57.750;11.970;2023-09-07T10:17:46;7.20;;;3.42;;
14799;SDS011;7491;57.750;11.970;2023-09-07T10:20:15;6.40;;;3.22;;
14799;SDS011;7491;57.750;11.970;2023-09-07T10:22:42;5.55;;;3.55;;
14799;SDS011;7491;57.750;11.970;2023-09-07T10:25:19;4.53;;;3.40;;
14799;SDS011;7491;57.750;11.970;2023-09-07T10:27:47;5.45;;;3.95;;
14799;SDS011;7491;57.750;11.970;2023-09-07T10:30:15;6.80;;;3.65;;
14799;SDS011;7491;57.750;11.970;2023-09-07T10:32:47;5.35;;;3.72;;
14799;SDS011;7491;57.750;11.970;2023-09-07T10:35:14;6.25;;;4.18;;
14799;SDS011;7491;57.750;11.970;2023-09-07T10:37:43;8.20;;;3.75;;
14799;SDS011;7491;57.750;11.970;2023-09-07T10:40:11;4.30;;;3.10;;
14799;SDS011;7491;57.750;11.970;2023-09-07T10:42:39;5.55;;;3.33;;
14799;SDS011;7491;57.750;11.970;2023-09-07T10:45:10;3.90;;;2.92;;
14799;SDS011;7491;57.750;11.970;2023-09-07T10:47:41;5.60;;;3.22;;
14799;SDS011;7491;57.750;11.970;2023-09-07T10:50:10;5.10;;;3.35;;
14799;SDS011;7491;57.750;11.970;2023-09-07T10:52:39;3.70;;;2.90;;
14799;SDS011;7491;57.750;11.970;2023-09-07T10:55:07;6.72;;;3.67;;
14799;SDS011;7491;57.750;11.970;2023-09-07T10:57:45;4.90;;;3.45;;
14799;SDS011;7491;57.750;11.970;2023-09-07T11:00:13;4.30;;;3.50;;
14799;SDS011;7491;57.750;11.970;2023-09-07T11:02:43;4.70;;;3.00;;
14799;SDS011;7491;57.750;11.970;2023-09-07T11:05:09;5.45;;;3.03;;
14799;SDS011;7491;57.750;11.970;2023-09-07T11:07:36;4.93;;;3.10;;
14799;SDS011;7491;57.750;11.970;2023-09-07T11:10:07;7.03;;;3.05;;
14799;SDS011;7491;57.750;11.970;2023-09-07T11:12:39;5.97;;;3.30;;
14799;SDS011;7491;57.750;11.970;2023-09-07T11:15:08;4.05;;;3.08;;
14799;SDS011;7491;57.750;11.970;2023-09-07T11:17:36;5.07;;;3.25;;
14799;SDS011;7491;57.750;11.970;2023-09-07T11:20:06;6.68;;;3.00;;
14799;SDS011;7491;57.750;11.970;2023-09-07T11:22:35;6.70;;;2.97;;
14799;SDS011;7491;57.750;11.970;2023-09-07T11:25:04;5.22;;;2.95;;
14799;SDS011;7491;57.750;11.970;2023-09-07T11:27:31;3.88;;;2.70;;
14799;SDS011;7491;57.750;11.970;2023-09-07T11:29:58;7.45;;;3.15;;
14799;SDS011;7491;57.750;11.970;2023-09-07T11:32:32;3.53;;;2.78;;
14799;SDS011;7491;57.750;11.970;2023-09-07T11:35:00;8.75;;;3.20;;
14799;SDS011;7491;57.750;11.970;2023-09-07T11:37:28;5.95;;;3.40;;
14799;SDS011;7491;57.750;11.970;2023-09-07T11:39:55;6.88;;;3.03;;
14799;SDS011;7491;57.750;11.970;2023-09-07T11:42:22;6.65;;;3.28;;
14799;SDS011;7491;57.750;11.970;2023-09-07T11:44:48;4.30;;;2.60;;
14799;SDS011;7491;57.750;11.970;2023-09-07T11:47:15;5.30;;;2.92;;
14799;SDS011;7491;57.750;11.970;2023-09-07T11:49:42;5.05;;;2.60;;
14799;SDS011;7491;57.750;11.970;2023-09-07T11:52:09;4.35;;;2.50;;
14799;SDS011;7491;57.750;11.970;2023-09-07T11:54:37;6.43;;;2.80;;
14799;SDS011;7491;57.750;11.970;2023-09-07T11:57:04;4.47;;;2.38;;
14799;SDS011;7491;57.750;11.970;2023-09-07T11:59:31;4.50;;;2.53;;
14799;SDS011;7491;57.750;11.970;2023-09-07T12:01:57;4.57;;;2.42;;
14799;SDS011;7491;57.750;11.970;2023-09-07T12:04:24;3.78;;;2.50;;
14799;SDS011;7491;57.750;11.970;2023-09-07T12:06:51;3.70;;;2.45;;
14799;SDS011;7491;57.750;11.970;2023-09-07T12:09:17;4.03;;;2.90;;
14799;SDS011;7491;57.750;11.970;2023-09-07T12:11:45;5.63;;;2.97;;
14799;SDS011;7491;57.750;11.970;2023-09-07T12:14:12;8.32;;;2.60;;
14799;SDS011;7491;57.750;11.970;2023-09-07T12:16:39;4.13;;;2.55;;
14799;SDS011;7491;57.750;11.970;2023-09-07T12:19:06;5.30;;;2.90;;
14799;SDS011;7491;57.750;11.970;2023-09-07T12:21:32;4.72;;;2.90;;
14799;SDS011;7491;57.750;11.970;2023-09-07T12:23:59;7.65;;;2.90;;
14799;SDS011;7491;57.750;11.970;2023-09-07T12:26:26;8.82;;;3.20;;
14799;SDS011;7491;57.750;11.970;2023-09-07T12:28:54;3.67;;;2.63;;
14799;SDS011;7491;57.750;11.970;2023-09-07T12:31:21;5.05;;;2.70;;
14799;SDS011;7491;57.750;11.970;2023-09-07T12:33:48;6.72;;;2.78;;
14799;SDS011;7491;57.750;11.970;2023-09-07T12:36:14;5.10;;;2.65;;
14799;SDS011;7491;57.750;11.970;2023-09-07T12:38:41;5.35;;;2.40;;
14799;SDS011;7491;57.750;11.970;2023-09-07T12:41:08;4.60;;;2.55;;
14799;SDS011;7491;57.750;11.970;2023-09-07T12:43:35;6.90;;;3.50;;
14799;SDS011;7491;57.750;11.970;2023-09-07T12:46:04;5.70;;;2.92;;
14799;SDS011;7491;57.750;11.970;2023-09-07T12:48:31;6.60;;;2.67;;
14799;SDS011;7491;57.750;11.970;2023-09-07T12:50:57;5.45;;;2.65;;
14799;SDS011;7491;57.750;11.970;2023-09-07T12:53:24;5.32;;;2.33;;
14799;SDS011;7491;57.750;11.970;2023-09-07T12:55:51;2.60;;;2.33;;
14799;SDS011;7491;57.750;11.970;2023-09-07T12:58:18;7.78;;;2.75;;
14799;SDS011;7491;57.750;11.970;2023-09-07T13:00:45;5.57;;;2.78;;
14799;SDS011;7491;57.750;11.970;2023-09-07T13:03:14;6.07;;;2.30;;
14799;SDS011;7491;57.750;11.970;2023-09-07T13:05:41;3.80;;;2.75;;
14799;SDS011;7491;57.750;11.970;2023-09-07T13:08:08;6.38;;;2.78;;
14799;SDS011;7491;57.750;11.970;2023-09-07T13:10:37;5.55;;;2.65;;
14799;SDS011;7491;57.750;11.970;2023-09-07T13:13:04;5.88;;;2.58;;
14799;SDS011;7491;57.750;11.970;2023-09-07T13:15:30;3.97;;;2.45;;
14799;SDS011;7491;57.750;11.970;2023-09-07T13:17:57;3.33;;;2.35;;
14799;SDS011;7491;57.750;11.970;2023-09-07T13:20:25;3.78;;;2.50;;
14799;SDS011;7491;57.750;11.970;2023-09-07T13:22:52;6.53;;;2.63;;
14799;SDS011;7491;57.750;11.970;2023-09-07T13:25:19;5.65;;;2.63;;
14799;SDS011;7491;57.750;11.970;2023-09-07T13:27:45;5.68;;;2.58;;
14799;SDS011;7491;57.750;11.970;2023-09-07T13:30:12;3.78;;;2.33;;
14799;SDS011;7491;57.750;11.970;2023-09-07T13:32:39;6.07;;;2.83;;
14799;SDS011;7491;57.750;11.970;2023-09-07T13:35:06;5.45;;;2.83;;
14799;SDS011;7491;57.750;11.970;2023-09-07T13:37:35;6.60;;;2.63;;
14799;SDS011;7491;57.750;11.970;2023-09-07T13:40:01;4.50;;;2.47;;
14799;SDS011;7491;57.750;11.970;2023-09-07T13:42:28;4.25;;;3.03;;
14799;SDS011;7491;57.750;11.970;2023-09-07T13:44:55;4.75;;;2.78;;
14799;SDS011;7491;57.750;11.970;2023-09-07T13:47:22;4.22;;;3.15;;
14799;SDS011;7491;57.750;11.970;2023-09-07T13:49:49;4.80;;;3.30;;
14799;SDS011;7491;57.750;11.970;2023-09-07T13:52:15;5.35;;;2.97;;
14799;SDS011;7491;57.750;11.970;2023-09-07T13:54:43;5.68;;;2.85;;
14799;SDS011;7491;57.750;11.970;2023-09-07T13:57:10;4.45;;;3.08;;
14799;SDS011;7491;57.750;11.970;2023-09-07T13:59:37;6.47;;;3.67;;
14799;SDS011;7491;57.750;11.970;2023-09-07T14:02:04;3.53;;;3.22;;
14799;SDS011;7491;57.750;11.970;2023-09-07T14:04:40;4.15;;;3.40;;
14799;SDS011;7491;57.750;11.970;2023-09-07T14:07:06;4.55;;;3.50;;
14799;SDS011;7491;57.750;11.970;2023-09-07T14:09:33;4.63;;;2.97;;
14799;SDS011;7491;57.750;11.970;2023-09-07T14:12:01;5.32;;;3.28;;
14799;SDS011;7491;57.750;11.970;2023-09-07T14:14:31;4.35;;;3.75;;
14799;SDS011;7491;57.750;11.970;2023-09-07T14:16:58;6.35;;;3.35;;
14799;SDS011;7491;57.750;11.970;2023-09-07T14:19:25;4.93;;;3.20;;
14799;SDS011;7491;57.750;11.970;2023-09-07T14:21:52;5.05;;;3.28;;
14799;SDS011;7491;57.750;11.970;2023-09-07T14:24:18;8.98;;;3.50;;
14799;SDS011;7491;57.750;11.970;2023-09-07T14:26:45;5.30;;;3.70;;
14799;SDS011;7491;57.750;11.970;2023-09-07T14:29:16;5.38;;;3.45;;
14799;SDS011;7491;57.750;11.970;2023-09-07T14:31:44;9.13;;;3.70;;
14799;SDS011;7491;57.750;11.970;2023-09-07T14:34:11;3.88;;;3.45;;
14799;SDS011;7491;57.750;11.970;2023-09-07T14:36:38;4.05;;;3.53;;
14799;SDS011;7491;57.750;11.970;2023-09-07T14:39:05;6.93;;;3.58;;
14799;SDS011;7491;57.750;11.970;2023-09-07T14:44:40;5.35;;;3.65;;